ロンドン/ヒースロー の空港の天気 - METARとTAF

ロンドン・ヒースロー空港 ( EGLL / LHR ) - イギリス ロンドン
飛行場実況気象(Metar)
観測時間04/21 15:50 BST (04/21 14:50 UTC)
風向・風速東北東 3m/s
視程10km以上
天気現象
なし
気温24℃
湿度27%
気圧1017hPa
METAREGLL 211450Z AUTO 07006KT 030V120 9999 NCD 24/04 Q1017 NOSIG
過去の天気等 Google飛行場航空写真 Wunderground天気予報

過去48時間のMETAR

飛行場予報(TAF)
発表時間: 4/21 11:53 BST (4/21 10:53 UTC)
予報対象時間: 21日13時 BST ~ 22日19時 BST
風向・風速東 4m/s
視程10km以上
なし
22日1時 BST から 確率 30% で
視程8000m
TAF EGLL 211053Z 2112/2218 10008KT CAVOK
PROB30 2200/2208 8000